createdAt,value
2019-03-15T00:00:16.936Z,7.77
2019-03-15T00:05:18.714Z,9.30
2019-03-15T00:10:21.223Z,9.87
2019-03-15T00:15:22.971Z,10.90
2019-03-15T00:20:25.095Z,11.00
2019-03-15T00:25:27.564Z,10.00
2019-03-15T00:30:30.158Z,7.73
2019-03-15T00:35:31.932Z,6.90
2019-03-15T00:40:33.722Z,7.87
2019-03-15T00:45:35.508Z,7.00
2019-03-15T00:50:37.299Z,7.17
2019-03-15T00:55:39.091Z,8.40
2019-03-15T01:00:41.141Z,6.07
2019-03-15T01:05:42.963Z,7.10
2019-03-15T01:10:44.702Z,5.63
2019-03-15T01:15:46.529Z,4.37
2019-03-15T01:20:48.402Z,5.40
2019-03-15T01:25:50.180Z,4.60
2019-03-15T01:30:52.603Z,3.60
2019-03-15T01:35:54.346Z,4.80
2019-03-15T01:40:56.143Z,4.43
2019-03-15T01:45:57.914Z,3.37
2019-03-15T01:51:00.124Z,3.30
2019-03-15T01:56:02.441Z,3.00
2019-03-15T02:01:04.790Z,4.47
2019-03-15T02:06:06.553Z,3.70
2019-03-15T02:11:08.565Z,4.67
2019-03-15T02:16:10.569Z,3.97
2019-03-15T02:21:12.373Z,4.53
2019-03-15T02:26:14.181Z,5.03
2019-03-15T02:31:16.294Z,4.73
2019-03-15T02:36:18.090Z,3.73
2019-03-15T02:41:19.883Z,3.53
2019-03-15T02:46:22.394Z,3.80
2019-03-15T02:51:24.092Z,5.10
2019-03-15T02:56:26.206Z,4.50
2019-03-15T03:01:27.944Z,4.90
2019-03-15T03:06:30.578Z,5.40
2019-03-15T03:11:32.441Z,4.57
2019-03-15T03:16:34.273Z,2.90
2019-03-15T03:21:36.042Z,3.83
2019-03-15T03:26:37.811Z,3.50
2019-03-15T03:31:40.255Z,3.73
2019-03-15T03:36:42.251Z,2.80
2019-03-15T03:41:43.999Z,3.53
2019-03-15T03:46:45.867Z,4.00
2019-03-15T03:51:47.624Z,4.23
2019-03-15T03:56:49.628Z,4.33
2019-03-15T04:01:51.421Z,4.30
2019-03-15T04:06:53.653Z,3.60
2019-03-15T04:11:56.206Z,4.70
2019-03-15T04:16:58.570Z,4.70
2019-03-15T04:22:00.266Z,3.73
2019-03-15T04:27:02.065Z,6.00
2019-03-15T04:32:05.019Z,4.60
2019-03-15T04:37:09.302Z,3.40
2019-03-15T04:42:10.910Z,3.30
2019-03-15T04:47:13.052Z,3.57
2019-03-15T04:52:14.853Z,2.20
2019-03-15T04:57:16.653Z,3.87
2019-03-15T05:02:18.374Z,6.00
2019-03-15T05:07:20.590Z,4.77
2019-03-15T05:12:22.344Z,4.90
2019-03-15T05:17:24.098Z,5.23
2019-03-15T05:22:25.961Z,5.53
2019-03-15T05:27:28.022Z,4.70
2019-03-15T05:32:31.103Z,5.47
2019-03-15T05:37:33.160Z,4.20
2019-03-15T05:42:35.330Z,5.33
2019-03-15T05:47:37.062Z,6.00
2019-03-15T05:52:39.073Z,8.57
2019-03-15T05:57:41.215Z,10.20
2019-03-15T06:02:43.238Z,10.20
2019-03-15T06:07:45.051Z,8.90
2019-03-15T06:12:47.163Z,10.00
2019-03-15T06:17:48.908Z,12.17
2019-03-15T06:22:50.661Z,12.27
2019-03-15T06:27:52.793Z,12.43
2019-03-15T06:32:55.806Z,12.30
2019-03-15T06:37:57.569Z,12.20
2019-03-15T06:42:59.716Z,11.10
2019-03-15T06:48:01.479Z,12.07
2019-03-15T06:53:03.637Z,10.83
2019-03-15T06:58:06.176Z,11.30
2019-03-15T07:03:07.897Z,10.53
2019-03-15T07:08:09.644Z,13.77
2019-03-15T07:13:12.174Z,12.33
2019-03-15T07:18:13.970Z,9.80
2019-03-15T07:23:15.750Z,9.80
2019-03-15T07:28:18.251Z,9.90
2019-03-15T07:33:20.045Z,10.50
2019-03-15T07:43:23.413Z,11.13
2019-03-15T07:48:26.864Z,7.60
2019-03-15T07:53:28.856Z,10.43
2019-03-15T07:58:30.439Z,7.50
2019-03-15T08:03:32.299Z,11.07
2019-03-15T08:08:34.252Z,9.97
2019-03-15T08:13:36.017Z,7.13
2019-03-15T08:18:37.834Z,11.17
2019-03-15T08:23:40.145Z,9.50
2019-03-15T08:28:41.910Z,7.90
2019-03-15T08:33:44.749Z,8.53
2019-03-15T08:38:48.018Z,9.43
2019-03-15T08:43:49.910Z,9.70
2019-03-15T08:48:51.656Z,9.37
2019-03-15T08:53:53.530Z,11.13
2019-03-15T08:58:55.374Z,8.50
2019-03-15T09:03:57.899Z,9.33
2019-03-15T09:08:59.681Z,8.80
2019-03-15T09:14:01.832Z,8.70
2019-03-15T09:19:07.629Z,9.73
2019-03-15T09:24:09.497Z,8.07
2019-03-15T09:29:11.217Z,7.73
2019-03-15T09:34:15.820Z,7.53
2019-03-15T09:39:17.535Z,6.43
2019-03-15T09:44:19.270Z,7.30
2019-03-15T09:49:20.942Z,9.13
2019-03-15T09:54:22.563Z,11.50
2019-03-15T09:59:24.213Z,11.90
2019-03-15T10:04:26.167Z,10.60
2019-03-15T10:09:27.815Z,8.13
2019-03-15T10:14:29.438Z,7.17
2019-03-15T10:19:31.100Z,11.27
2019-03-15T10:24:32.802Z,10.03
2019-03-15T10:29:34.473Z,5.20
2019-03-15T10:34:38.222Z,5.97
2019-03-15T10:39:39.950Z,6.77
2019-03-15T10:44:41.840Z,6.93
2019-03-15T10:49:43.485Z,5.33
2019-03-15T10:54:45.514Z,4.67
2019-03-15T10:59:47.162Z,5.33
2019-03-15T11:04:49.178Z,6.77
2019-03-15T11:09:50.820Z,4.87
2019-03-15T11:14:54.453Z,5.03
2019-03-15T11:19:56.137Z,3.40
2019-03-15T11:24:58.001Z,2.67
2019-03-15T11:29:59.632Z,3.43
2019-03-15T11:35:06.220Z,5.40
2019-03-15T11:40:13.904Z,3.63
2019-03-15T11:45:14.905Z,3.43
2019-03-15T11:50:20.894Z,3.93
2019-03-15T11:55:22.551Z,4.50
2019-03-15T12:00:24.238Z,2.93
2019-03-15T12:05:26.295Z,3.37
2019-03-15T12:10:27.907Z,2.80
2019-03-15T12:15:29.578Z,1.87
2019-03-15T12:20:31.171Z,2.30
2019-03-15T12:25:32.854Z,3.57
2019-03-15T12:30:34.645Z,2.80
2019-03-15T12:35:39.090Z,4.70
2019-03-15T12:40:40.898Z,6.70
2019-03-15T12:45:42.528Z,8.30
2019-03-15T12:50:44.584Z,10.83
2019-03-15T12:55:46.305Z,11.70
2019-03-15T13:00:47.985Z,11.43
2019-03-15T13:05:50.007Z,11.20
2019-03-15T13:10:51.653Z,9.03
2019-03-15T13:15:53.246Z,13.30
2019-03-15T13:20:54.943Z,9.37
2019-03-15T13:25:56.546Z,10.30
2019-03-15T13:30:58.236Z,15.80
2019-03-15T13:36:00.329Z,11.10
2019-03-15T13:41:02.236Z,12.00
2019-03-15T13:46:03.954Z,10.63
2019-03-15T13:51:05.642Z,11.40
2019-03-15T13:56:07.325Z,10.83
2019-03-15T14:01:09.691Z,11.47
2019-03-15T14:06:12.295Z,12.80
2019-03-15T14:11:14.388Z,9.83
2019-03-15T14:16:16.107Z,14.30
2019-03-15T14:21:20.008Z,10.03
2019-03-15T14:26:22.109Z,15.33
2019-03-15T14:31:23.896Z,9.60
2019-03-15T14:36:26.025Z,8.93
2019-03-15T14:41:27.756Z,15.00
2019-03-15T14:46:29.449Z,17.33
2019-03-15T14:51:31.177Z,14.33
2019-03-15T14:56:32.826Z,10.10
2019-03-15T15:01:34.525Z,13.37
2019-03-15T15:06:36.566Z,18.80
2019-03-15T15:11:38.600Z,11.40
2019-03-15T15:16:40.234Z,12.57
2019-03-15T15:21:41.887Z,11.03
2019-03-15T15:26:43.474Z,12.80
2019-03-15T15:31:45.193Z,0.60
2019-03-15T15:36:47.339Z,1.80
2019-03-15T15:41:49.074Z,4.73
2019-03-15T15:46:50.720Z,5.13
2019-03-15T15:51:52.456Z,7.87
2019-03-15T15:56:54.488Z,8.40
2019-03-15T16:01:56.076Z,6.77
2019-03-15T16:06:58.136Z,9.20
2019-03-15T16:11:59.851Z,8.20
2019-03-15T16:17:01.563Z,8.77
2019-03-15T16:22:03.582Z,17.70
2019-03-15T16:27:05.676Z,11.43
2019-03-15T16:32:08.815Z,16.57
2019-03-15T16:37:12.847Z,14.80
2019-03-15T16:42:14.998Z,16.60
2019-03-15T16:47:16.709Z,15.97
2019-03-15T16:52:18.498Z,15.03
2019-03-15T16:57:20.234Z,18.60
2019-03-15T17:02:22.168Z,14.60
2019-03-15T17:07:24.328Z,15.90
2019-03-15T17:12:26.074Z,15.97
2019-03-15T17:17:27.697Z,12.07
2019-03-15T17:22:29.489Z,15.33
2019-03-15T17:27:31.084Z,11.40
2019-03-15T17:32:32.768Z,9.80
2019-03-15T17:37:35.274Z,5.60
2019-03-15T17:42:37.178Z,9.87
2019-03-15T17:47:39.024Z,10.53
2019-03-15T17:52:40.750Z,7.80
2019-03-15T17:57:45.694Z,10.43
2019-03-15T18:02:47.412Z,8.27
2019-03-15T18:07:49.684Z,12.50
2019-03-15T18:13:02.249Z,11.43
2019-03-15T18:18:04.064Z,12.87
2019-03-15T18:23:06.146Z,10.13
2019-03-15T18:28:07.824Z,9.47
2019-03-15T18:33:09.574Z,8.77
2019-03-15T18:38:11.351Z,10.83
2019-03-15T18:43:13.125Z,10.97
2019-03-15T18:48:15.012Z,9.93
2019-03-15T18:53:16.805Z,10.60
2019-03-15T18:58:18.580Z,9.80
2019-03-15T19:03:21.251Z,10.43
2019-03-15T19:08:23.822Z,10.83
2019-03-15T19:13:26.384Z,9.90
2019-03-15T19:18:28.712Z,9.77
2019-03-15T19:23:31.417Z,9.87
2019-03-15T19:28:33.289Z,8.00
2019-03-15T19:33:35.474Z,10.40
2019-03-15T19:38:38.830Z,11.70
2019-03-15T19:43:41.108Z,13.40
2019-03-15T19:48:42.993Z,11.50
2019-03-15T19:53:44.788Z,10.70
2019-03-15T19:58:46.806Z,14.97
2019-03-15T20:03:49.055Z,10.10
2019-03-15T20:08:51.706Z,7.87
2019-03-15T20:13:54.422Z,7.10
2019-03-15T20:18:56.727Z,8.50
2019-03-15T20:23:59.334Z,10.07
2019-03-15T20:29:01.026Z,9.00
2019-03-15T20:34:02.784Z,7.83
2019-03-15T20:39:06.725Z,9.17
2019-03-15T20:44:09.042Z,12.83
2019-03-15T20:49:11.862Z,10.00
2019-03-15T20:54:13.741Z,11.10
2019-03-15T20:59:15.858Z,8.00
2019-03-15T21:04:17.542Z,9.00
2019-03-15T21:09:19.327Z,9.33
2019-03-15T21:14:21.096Z,8.37
2019-03-15T21:19:22.810Z,5.50
2019-03-15T21:24:24.590Z,6.60
2019-03-15T21:29:26.796Z,8.70
2019-03-15T21:34:28.478Z,7.57
2019-03-15T21:39:32.835Z,5.30
2019-03-15T21:44:34.639Z,5.40
2019-03-15T21:49:36.550Z,4.10
2019-03-15T21:54:38.349Z,2.67
2019-03-15T21:59:40.736Z,4.07
2019-03-15T22:04:42.746Z,4.63
2019-03-15T22:09:44.397Z,6.90
2019-03-15T22:14:46.139Z,6.00
2019-03-15T22:19:48.256Z,8.40
2019-03-15T22:24:50.063Z,8.53
2019-03-15T22:29:54.092Z,8.97
2019-03-15T22:34:55.740Z,11.63
2019-03-15T22:39:58.114Z,7.27
2019-03-15T22:45:00.186Z,9.10
2019-03-15T22:50:02.437Z,5.70
2019-03-15T22:55:06.104Z,4.70
2019-03-15T23:00:14.040Z,3.23
2019-03-15T23:05:15.624Z,3.43
2019-03-15T23:10:17.647Z,2.63
2019-03-15T23:15:19.235Z,4.73
2019-03-15T23:20:21.146Z,5.97
2019-03-15T23:25:22.845Z,6.43
2019-03-15T23:30:24.869Z,8.60
2019-03-15T23:35:26.653Z,9.47
2019-03-15T23:40:29.881Z,9.20
2019-03-15T23:45:31.680Z,13.50
2019-03-15T23:50:33.317Z,11.07
2019-03-15T23:55:35.516Z,13.20
